Taos, NM

8:09 PM MDT on September 21, 2014 (GMT -0600)
Las Vegas Municipal | Change Station
CLOSE
Current Station
Airport
Location: Las Vegas,
Elevation: 6877 ft
Nearby Weather Stations

Elev 6877 ft 35.65 °N, 105.14 °W | Updated 6 minutes ago

Partly Cloudy
Partly Cloudy
61 °F
Feels Like 61 °F
N
8
Wind Variable Wind from South

Today
High -- | Low -- °F
--% Chance of Precip.
Yesterday
High -- | Low -- °F
Precip. -- in
6:49 AM 7:00 PM
Waning Crescent, 4% visible
Pressure 30.41 in
Visibility 10.0 miles
Clouds Few 1800 ft
Scattered Clouds 3100 ft
Mostly Cloudy 4100 ft
Dew Point 56 °F
Humidity 83%
Rainfall 0.00 in
Snow Depth 0 in , 0 in , 0 in
UV 0 out of 12
Pollen 4.60 out of 12
Air Quality Not available.
Flu Activity Not available.
SPECI KLVS 220203Z AUTO 17007KT 10SM VCTS FEW018 SCT031 BKN041 16/13 A3041 RMK AO2 T01610133

More Conditions Fewer Conditions

Pressure 30.41 in
Visibility 10.0 miles
Clouds Few 1800 ft
Scattered Clouds 3100 ft
Mostly Cloudy 4100 ft
Dew Point 56 °F
Humidity 83%
Rainfall 0.00 in
Snow Depth 0 in , 0 in , 0 in
UV 0 out of 12
Pollen 4.60 out of 12
Air Quality Not available.
Flu Activity Not available.
SPECI KLVS 220203Z AUTO 17007KT 10SM VCTS FEW018 SCT031 BKN041 16/13 A3041 RMK AO2 T01610133

More Conditions Fewer Conditions

10-Day Weather Forecast

Almanac

Astronomy

Sep. 21, 2014 Rise Set
Actual Time 6:49 AM MDT 7:00 PM MDT
Civil Twilight 6:23 AM MDT 7:26 PM MDT
Nautical Twilight 5:53 AM MDT 7:56 PM MDT
Astronomical Twilight 5:23 AM MDT 8:26 PM MDT
Moon 4:28 AM MDT (9/21) 5:35 PM MDT (9/21)
Length of Visible Light 13h 02m
Length of Day
12h 11m
Tomorrow will be 2m 18s shorter.
Waning Crescent, 4% of the Moon is Illuminated
Today
Waning Crescent
Sep 24
New
Oct 1
First Quarter
Oct 8
Full
Oct 15
Last Quarter

Today's Extremes

State Highs State Lows

Community

WunderPhotos

Upload Photos

1,755,347 photos uploaded!

WunderBlogs® & News

Nearby

Snow Depth

Station Depth Elevation
North Costilla 0 in 10600 ft
Santa Fe 0 in 11445 ft
Tolby 0 in 10180 ft
Silver Creek Divide 1 in 9000 ft
Quemazon 0 in 9500 ft

Earthquake Activity

City Distance Mag. Time & Date
No recent earthquake activity has been reported nearby.
Minimum magnitude displayed is 2.5.

Coastal Water Temperatures

Place Temperature
No Stations Reporting

Nearby Weather Stations